sensor_id;sensor_type;location;lat;lon;timestamp;temperature;humidity
16172;DHT22;8192;53.596;10.166;2023-03-19T00:02:18;9.20;99.90
16172;DHT22;8192;53.596;10.166;2023-03-19T00:04:48;9.00;99.90
16172;DHT22;8192;53.596;10.166;2023-03-19T00:07:17;9.00;99.90
16172;DHT22;8192;53.596;10.166;2023-03-19T00:09:46;8.90;99.90
16172;DHT22;8192;53.596;10.166;2023-03-19T00:12:13;8.90;99.90
16172;DHT22;8192;53.596;10.166;2023-03-19T00:14:40;8.90;99.90
16172;DHT22;8192;53.596;10.166;2023-03-19T00:17:10;9.00;99.90
16172;DHT22;8192;53.596;10.166;2023-03-19T00:19:46;8.90;99.90
16172;DHT22;8192;53.596;10.166;2023-03-19T00:22:17;8.90;99.90
16172;DHT22;8192;53.596;10.166;2023-03-19T00:24:57;8.90;99.90
16172;DHT22;8192;53.596;10.166;2023-03-19T00:27:27;8.80;99.90
16172;DHT22;8192;53.596;10.166;2023-03-19T00:29:55;8.70;99.90
16172;DHT22;8192;53.596;10.166;2023-03-19T00:32:22;8.60;99.90
16172;DHT22;8192;53.596;10.166;2023-03-19T00:34:49;8.70;99.90
16172;DHT22;8192;53.596;10.166;2023-03-19T00:37:18;8.60;99.90
16172;DHT22;8192;53.596;10.166;2023-03-19T00:39:45;8.60;99.90
16172;DHT22;8192;53.596;10.166;2023-03-19T00:42:13;8.60;99.90
16172;DHT22;8192;53.596;10.166;2023-03-19T00:44:41;8.60;99.90
16172;DHT22;8192;53.596;10.166;2023-03-19T00:47:08;8.60;99.90
16172;DHT22;8192;53.596;10.166;2023-03-19T00:49:35;8.50;99.90
16172;DHT22;8192;53.596;10.166;2023-03-19T00:52:05;8.60;99.90
16172;DHT22;8192;53.596;10.166;2023-03-19T00:54:33;8.50;99.90
16172;DHT22;8192;53.596;10.166;2023-03-19T00:57:03;8.40;99.90
16172;DHT22;8192;53.596;10.166;2023-03-19T00:59:31;8.30;99.90
16172;DHT22;8192;53.596;10.166;2023-03-19T01:01:58;8.20;99.90
16172;DHT22;8192;53.596;10.166;2023-03-19T01:04:26;8.10;99.90
16172;DHT22;8192;53.596;10.166;2023-03-19T01:06:53;8.00;99.90
16172;DHT22;8192;53.596;10.166;2023-03-19T01:09:23;7.80;99.90
16172;DHT22;8192;53.596;10.166;2023-03-19T01:11:53;7.70;99.90
16172;DHT22;8192;53.596;10.166;2023-03-19T01:14:20;7.70;99.90
16172;DHT22;8192;53.596;10.166;2023-03-19T01:16:49;7.60;99.90
16172;DHT22;8192;53.596;10.166;2023-03-19T01:19:18;7.50;99.90
16172;DHT22;8192;53.596;10.166;2023-03-19T01:21:53;7.60;99.90
16172;DHT22;8192;53.596;10.166;2023-03-19T01:24:20;7.60;99.90
16172;DHT22;8192;53.596;10.166;2023-03-19T01:26:47;7.60;99.90
16172;DHT22;8192;53.596;10.166;2023-03-19T01:29:14;7.50;99.90
16172;DHT22;8192;53.596;10.166;2023-03-19T01:31:41;7.50;99.90
16172;DHT22;8192;53.596;10.166;2023-03-19T01:34:10;7.40;99.90
16172;DHT22;8192;53.596;10.166;2023-03-19T01:36:37;7.40;99.90
16172;DHT22;8192;53.596;10.166;2023-03-19T01:39:04;7.30;99.90
16172;DHT22;8192;53.596;10.166;2023-03-19T01:41:31;7.30;99.90
16172;DHT22;8192;53.596;10.166;2023-03-19T01:44:00;7.20;99.90
16172;DHT22;8192;53.596;10.166;2023-03-19T01:46:37;7.20;99.90
16172;DHT22;8192;53.596;10.166;2023-03-19T01:49:07;7.20;99.90
16172;DHT22;8192;53.596;10.166;2023-03-19T01:51:40;7.20;99.90
16172;DHT22;8192;53.596;10.166;2023-03-19T01:54:11;7.00;99.90
16172;DHT22;8192;53.596;10.166;2023-03-19T01:56:44;6.90;99.90
16172;DHT22;8192;53.596;10.166;2023-03-19T01:59:16;7.00;99.90
16172;DHT22;8192;53.596;10.166;2023-03-19T02:01:49;7.00;99.90
16172;DHT22;8192;53.596;10.166;2023-03-19T02:04:18;6.90;99.90
16172;DHT22;8192;53.596;10.166;2023-03-19T02:06:47;6.90;99.90
16172;DHT22;8192;53.596;10.166;2023-03-19T02:09:15;6.90;99.90
16172;DHT22;8192;53.596;10.166;2023-03-19T02:11:44;6.90;99.90
16172;DHT22;8192;53.596;10.166;2023-03-19T02:14:12;6.90;99.90
16172;DHT22;8192;53.596;10.166;2023-03-19T02:16:39;6.90;99.90
16172;DHT22;8192;53.596;10.166;2023-03-19T02:19:08;6.90;99.90
16172;DHT22;8192;53.596;10.166;2023-03-19T02:21:37;6.90;99.90
16172;DHT22;8192;53.596;10.166;2023-03-19T02:24:11;6.90;99.90
16172;DHT22;8192;53.596;10.166;2023-03-19T02:26:47;6.80;99.90
16172;DHT22;8192;53.596;10.166;2023-03-19T02:29:20;6.80;99.90
16172;DHT22;8192;53.596;10.166;2023-03-19T02:31:56;6.90;99.90
16172;DHT22;8192;53.596;10.166;2023-03-19T02:34:36;7.00;99.90
16172;DHT22;8192;53.596;10.166;2023-03-19T02:37:19;7.10;99.90
16172;DHT22;8192;53.596;10.166;2023-03-19T02:39:54;7.10;99.90
16172;DHT22;8192;53.596;10.166;2023-03-19T02:42:28;7.10;99.90
16172;DHT22;8192;53.596;10.166;2023-03-19T02:44:56;7.00;99.90
16172;DHT22;8192;53.596;10.166;2023-03-19T02:47:29;6.90;99.90
16172;DHT22;8192;53.596;10.166;2023-03-19T02:49:58;6.80;99.90
16172;DHT22;8192;53.596;10.166;2023-03-19T02:52:24;6.90;99.90
16172;DHT22;8192;53.596;10.166;2023-03-19T02:54:53;6.90;99.90
16172;DHT22;8192;53.596;10.166;2023-03-19T02:57:20;6.80;99.90
16172;DHT22;8192;53.596;10.166;2023-03-19T02:59:58;6.80;99.90
16172;DHT22;8192;53.596;10.166;2023-03-19T03:02:30;6.60;99.90
16172;DHT22;8192;53.596;10.166;2023-03-19T03:04:58;6.50;99.90
16172;DHT22;8192;53.596;10.166;2023-03-19T03:07:25;6.40;99.90
16172;DHT22;8192;53.596;10.166;2023-03-19T03:09:57;6.30;99.90
16172;DHT22;8192;53.596;10.166;2023-03-19T03:12:29;6.20;99.90
16172;DHT22;8192;53.596;10.166;2023-03-19T03:15:00;6.20;99.90
16172;DHT22;8192;53.596;10.166;2023-03-19T03:17:35;6.10;99.90
16172;DHT22;8192;53.596;10.166;2023-03-19T03:20:03;6.10;99.90
16172;DHT22;8192;53.596;10.166;2023-03-19T03:22:35;6.00;99.90
16172;DHT22;8192;53.596;10.166;2023-03-19T03:25:04;6.00;99.90
16172;DHT22;8192;53.596;10.166;2023-03-19T03:27:31;6.00;99.90
16172;DHT22;8192;53.596;10.166;2023-03-19T03:30:00;6.00;99.90
16172;DHT22;8192;53.596;10.166;2023-03-19T03:32:28;5.90;99.90
16172;DHT22;8192;53.596;10.166;2023-03-19T03:34:56;5.90;99.90
16172;DHT22;8192;53.596;10.166;2023-03-19T03:37:26;5.90;99.90
16172;DHT22;8192;53.596;10.166;2023-03-19T03:39:57;5.90;99.90
16172;DHT22;8192;53.596;10.166;2023-03-19T03:42:27;6.00;99.90
16172;DHT22;8192;53.596;10.166;2023-03-19T03:44:57;5.90;99.90
16172;DHT22;8192;53.596;10.166;2023-03-19T03:47:42;5.90;99.90
16172;DHT22;8192;53.596;10.166;2023-03-19T03:50:09;5.80;99.90
16172;DHT22;8192;53.596;10.166;2023-03-19T03:52:37;5.70;99.90
16172;DHT22;8192;53.596;10.166;2023-03-19T03:55:10;5.80;99.90
16172;DHT22;8192;53.596;10.166;2023-03-19T03:57:37;5.90;99.90
16172;DHT22;8192;53.596;10.166;2023-03-19T04:00:05;5.90;99.90
16172;DHT22;8192;53.596;10.166;2023-03-19T04:02:34;5.90;99.90
16172;DHT22;8192;53.596;10.166;2023-03-19T04:05:02;5.80;99.90
16172;DHT22;8192;53.596;10.166;2023-03-19T04:07:29;5.70;99.90
16172;DHT22;8192;53.596;10.166;2023-03-19T04:09:57;5.60;99.90
16172;DHT22;8192;53.596;10.166;2023-03-19T04:12:24;5.60;99.90
16172;DHT22;8192;53.596;10.166;2023-03-19T04:14:51;5.60;99.90
16172;DHT22;8192;53.596;10.166;2023-03-19T04:17:18;5.60;99.90
16172;DHT22;8192;53.596;10.166;2023-03-19T04:19:45;5.70;99.90
16172;DHT22;8192;53.596;10.166;2023-03-19T04:22:13;5.80;99.90
16172;DHT22;8192;53.596;10.166;2023-03-19T04:24:41;5.80;99.90
16172;DHT22;8192;53.596;10.166;2023-03-19T04:27:08;5.90;99.90
16172;DHT22;8192;53.596;10.166;2023-03-19T04:29:35;6.00;99.90
16172;DHT22;8192;53.596;10.166;2023-03-19T04:32:02;5.90;99.90
16172;DHT22;8192;53.596;10.166;2023-03-19T04:34:29;5.70;99.90
16172;DHT22;8192;53.596;10.166;2023-03-19T04:36:57;5.60;99.90
16172;DHT22;8192;53.596;10.166;2023-03-19T04:39:26;5.50;99.90
16172;DHT22;8192;53.596;10.166;2023-03-19T04:41:52;5.50;99.90
16172;DHT22;8192;53.596;10.166;2023-03-19T04:44:20;5.50;99.90
16172;DHT22;8192;53.596;10.166;2023-03-19T04:46:48;5.40;99.90
16172;DHT22;8192;53.596;10.166;2023-03-19T04:49:15;5.40;99.90
16172;DHT22;8192;53.596;10.166;2023-03-19T04:51:43;5.30;99.90
16172;DHT22;8192;53.596;10.166;2023-03-19T04:54:12;5.20;99.90
16172;DHT22;8192;53.596;10.166;2023-03-19T04:56:41;5.20;99.90
16172;DHT22;8192;53.596;10.166;2023-03-19T04:59:08;5.20;99.90
16172;DHT22;8192;53.596;10.166;2023-03-19T05:01:35;5.30;99.90
16172;DHT22;8192;53.596;10.166;2023-03-19T05:04:02;5.30;99.90
16172;DHT22;8192;53.596;10.166;2023-03-19T05:06:39;5.30;99.90
16172;DHT22;8192;53.596;10.166;2023-03-19T05:09:06;5.30;99.90
16172;DHT22;8192;53.596;10.166;2023-03-19T05:11:39;5.40;99.90
16172;DHT22;8192;53.596;10.166;2023-03-19T05:14:07;5.50;99.90
16172;DHT22;8192;53.596;10.166;2023-03-19T05:16:38;5.50;99.90
16172;DHT22;8192;53.596;10.166;2023-03-19T05:19:05;5.60;99.90
16172;DHT22;8192;53.596;10.166;2023-03-19T05:21:32;5.60;99.90
16172;DHT22;8192;53.596;10.166;2023-03-19T05:24:07;5.70;99.90
16172;DHT22;8192;53.596;10.166;2023-03-19T05:26:34;5.80;99.90
16172;DHT22;8192;53.596;10.166;2023-03-19T05:29:02;5.80;99.90
16172;DHT22;8192;53.596;10.166;2023-03-19T05:31:30;5.90;99.90
16172;DHT22;8192;53.596;10.166;2023-03-19T05:33:59;6.00;99.90
16172;DHT22;8192;53.596;10.166;2023-03-19T05:36:35;5.90;99.90
16172;DHT22;8192;53.596;10.166;2023-03-19T05:39:02;6.00;99.90
16172;DHT22;8192;53.596;10.166;2023-03-19T05:41:31;6.00;99.90
16172;DHT22;8192;53.596;10.166;2023-03-19T05:43:58;6.10;99.90
16172;DHT22;8192;53.596;10.166;2023-03-19T05:46:25;6.10;99.90
16172;DHT22;8192;53.596;10.166;2023-03-19T05:48:54;6.10;99.90
16172;DHT22;8192;53.596;10.166;2023-03-19T05:51:23;6.10;99.90
16172;DHT22;8192;53.596;10.166;2023-03-19T05:53:51;6.20;99.90
16172;DHT22;8192;53.596;10.166;2023-03-19T05:56:19;6.20;99.90
16172;DHT22;8192;53.596;10.166;2023-03-19T05:58:51;6.20;99.90
16172;DHT22;8192;53.596;10.166;2023-03-19T06:01:18;6.30;99.90
16172;DHT22;8192;53.596;10.166;2023-03-19T06:03:47;6.40;99.90
16172;DHT22;8192;53.596;10.166;2023-03-19T06:06:25;6.40;99.90
16172;DHT22;8192;53.596;10.166;2023-03-19T06:08:52;6.50;99.90
16172;DHT22;8192;53.596;10.166;2023-03-19T06:11:19;6.50;99.90
16172;DHT22;8192;53.596;10.166;2023-03-19T06:13:46;6.60;99.90
16172;DHT22;8192;53.596;10.166;2023-03-19T06:16:13;6.70;99.90
16172;DHT22;8192;53.596;10.166;2023-03-19T06:18:41;6.70;99.90
16172;DHT22;8192;53.596;10.166;2023-03-19T06:21:08;6.90;99.90
16172;DHT22;8192;53.596;10.166;2023-03-19T06:23:37;7.00;99.90
16172;DHT22;8192;53.596;10.166;2023-03-19T06:26:05;7.10;99.90
16172;DHT22;8192;53.596;10.166;2023-03-19T06:28:32;7.30;99.90
16172;DHT22;8192;53.596;10.166;2023-03-19T06:30:59;7.40;99.90
16172;DHT22;8192;53.596;10.166;2023-03-19T06:33:29;7.50;99.90
16172;DHT22;8192;53.596;10.166;2023-03-19T06:35:57;7.70;99.90
16172;DHT22;8192;53.596;10.166;2023-03-19T06:38:24;7.80;99.90
16172;DHT22;8192;53.596;10.166;2023-03-19T06:40:52;7.90;99.90
16172;DHT22;8192;53.596;10.166;2023-03-19T06:43:19;8.10;99.90
16172;DHT22;8192;53.596;10.166;2023-03-19T06:45:49;8.40;99.90
16172;DHT22;8192;53.596;10.166;2023-03-19T06:48:17;8.80;99.90
16172;DHT22;8192;53.596;10.166;2023-03-19T06:50:44;9.10;99.90
16172;DHT22;8192;53.596;10.166;2023-03-19T06:53:14;9.40;99.90
16172;DHT22;8192;53.596;10.166;2023-03-19T06:55:44;9.70;99.90
16172;DHT22;8192;53.596;10.166;2023-03-19T06:58:16;10.40;99.90
16172;DHT22;8192;53.596;10.166;2023-03-19T07:00:42;11.00;99.90
16172;DHT22;8192;53.596;10.166;2023-03-19T07:03:13;11.70;99.90
16172;DHT22;8192;53.596;10.166;2023-03-19T07:05:42;12.00;99.90
16172;DHT22;8192;53.596;10.166;2023-03-19T07:08:16;12.10;99.90
16172;DHT22;8192;53.596;10.166;2023-03-19T07:10:43;12.90;99.90
16172;DHT22;8192;53.596;10.166;2023-03-19T07:13:10;13.40;99.90
16172;DHT22;8192;53.596;10.166;2023-03-19T07:15:40;13.60;99.90
16172;DHT22;8192;53.596;10.166;2023-03-19T07:18:10;13.80;99.90
16172;DHT22;8192;53.596;10.166;2023-03-19T07:20:37;14.40;99.90
16172;DHT22;8192;53.596;10.166;2023-03-19T07:23:04;14.40;99.90
16172;DHT22;8192;53.596;10.166;2023-03-19T07:25:31;14.30;99.90
16172;DHT22;8192;53.596;10.166;2023-03-19T07:27:58;13.80;99.90
16172;DHT22;8192;53.596;10.166;2023-03-19T07:30:27;13.70;99.90
16172;DHT22;8192;53.596;10.166;2023-03-19T07:32:59;13.60;99.90
16172;DHT22;8192;53.596;10.166;2023-03-19T07:35:26;13.70;99.90
16172;DHT22;8192;53.596;10.166;2023-03-19T07:37:53;13.90;99.90
16172;DHT22;8192;53.596;10.166;2023-03-19T07:40:21;14.60;99.90
16172;DHT22;8192;53.596;10.166;2023-03-19T07:42:48;15.20;99.90
16172;DHT22;8192;53.596;10.166;2023-03-19T07:45:16;15.80;99.90
16172;DHT22;8192;53.596;10.166;2023-03-19T07:47:43;16.10;99.90
16172;DHT22;8192;53.596;10.166;2023-03-19T07:50:13;16.00;99.90
16172;DHT22;8192;53.596;10.166;2023-03-19T07:52:43;15.60;99.90
16172;DHT22;8192;53.596;10.166;2023-03-19T07:55:15;15.40;99.90
16172;DHT22;8192;53.596;10.166;2023-03-19T07:57:42;14.70;99.90
16172;DHT22;8192;53.596;10.166;2023-03-19T08:00:10;14.50;99.90
16172;DHT22;8192;53.596;10.166;2023-03-19T08:02:37;14.50;99.90
16172;DHT22;8192;53.596;10.166;2023-03-19T08:05:05;14.40;99.90
16172;DHT22;8192;53.596;10.166;2023-03-19T08:07:34;14.50;99.90
16172;DHT22;8192;53.596;10.166;2023-03-19T08:10:02;14.40;99.90
16172;DHT22;8192;53.596;10.166;2023-03-19T08:12:29;14.40;99.90
16172;DHT22;8192;53.596;10.166;2023-03-19T08:14:57;14.70;99.90
16172;DHT22;8192;53.596;10.166;2023-03-19T08:17:24;14.90;99.90
16172;DHT22;8192;53.596;10.166;2023-03-19T08:19:51;15.10;99.90
16172;DHT22;8192;53.596;10.166;2023-03-19T08:22:18;15.10;99.90
16172;DHT22;8192;53.596;10.166;2023-03-19T08:24:47;15.00;99.90
16172;DHT22;8192;53.596;10.166;2023-03-19T08:27:14;14.70;99.90
16172;DHT22;8192;53.596;10.166;2023-03-19T08:29:41;14.80;99.90
16172;DHT22;8192;53.596;10.166;2023-03-19T08:32:08;14.60;99.90
16172;DHT22;8192;53.596;10.166;2023-03-19T08:34:46;14.70;99.90
16172;DHT22;8192;53.596;10.166;2023-03-19T08:37:13;14.50;99.90
16172;DHT22;8192;53.596;10.166;2023-03-19T08:39:40;14.30;99.90
16172;DHT22;8192;53.596;10.166;2023-03-19T08:42:08;14.20;99.90
16172;DHT22;8192;53.596;10.166;2023-03-19T08:44:36;14.30;99.90
16172;DHT22;8192;53.596;10.166;2023-03-19T08:47:03;14.20;99.90
16172;DHT22;8192;53.596;10.166;2023-03-19T08:49:30;14.10;99.90
16172;DHT22;8192;53.596;10.166;2023-03-19T08:51:57;14.10;99.90
16172;DHT22;8192;53.596;10.166;2023-03-19T08:54:24;14.00;99.90
16172;DHT22;8192;53.596;10.166;2023-03-19T08:56:51;14.10;99.90
16172;DHT22;8192;53.596;10.166;2023-03-19T08:59:20;14.20;99.90
16172;DHT22;8192;53.596;10.166;2023-03-19T09:01:49;14.30;99.90
16172;DHT22;8192;53.596;10.166;2023-03-19T09:04:17;14.40;99.90
16172;DHT22;8192;53.596;10.166;2023-03-19T09:06:44;14.80;99.90
16172;DHT22;8192;53.596;10.166;2023-03-19T09:09:11;14.90;99.90
16172;DHT22;8192;53.596;10.166;2023-03-19T09:11:38;14.90;99.90
16172;DHT22;8192;53.596;10.166;2023-03-19T09:14:04;15.10;99.90
16172;DHT22;8192;53.596;10.166;2023-03-19T09:16:35;15.30;99.90
16172;DHT22;8192;53.596;10.166;2023-03-19T09:19:02;15.40;99.90
16172;DHT22;8192;53.596;10.166;2023-03-19T09:21:29;15.40;99.90
16172;DHT22;8192;53.596;10.166;2023-03-19T09:23:56;15.30;99.90
16172;DHT22;8192;53.596;10.166;2023-03-19T09:26:23;15.40;99.90
16172;DHT22;8192;53.596;10.166;2023-03-19T09:28:50;15.40;99.90
16172;DHT22;8192;53.596;10.166;2023-03-19T09:31:26;15.40;99.90
16172;DHT22;8192;53.596;10.166;2023-03-19T09:33:54;15.10;99.90
16172;DHT22;8192;53.596;10.166;2023-03-19T09:36:21;15.10;99.90
16172;DHT22;8192;53.596;10.166;2023-03-19T09:38:48;15.00;99.90
16172;DHT22;8192;53.596;10.166;2023-03-19T09:41:21;14.90;99.90
16172;DHT22;8192;53.596;10.166;2023-03-19T09:43:59;14.70;99.90
16172;DHT22;8192;53.596;10.166;2023-03-19T09:46:32;14.80;99.90
16172;DHT22;8192;53.596;10.166;2023-03-19T09:49:08;14.90;99.90
16172;DHT22;8192;53.596;10.166;2023-03-19T09:51:42;15.10;99.90
16172;DHT22;8192;53.596;10.166;2023-03-19T09:54:21;15.40;99.90
16172;DHT22;8192;53.596;10.166;2023-03-19T09:56:51;15.70;99.90
16172;DHT22;8192;53.596;10.166;2023-03-19T09:59:19;15.80;99.90
16172;DHT22;8192;53.596;10.166;2023-03-19T10:01:52;16.00;99.90
16172;DHT22;8192;53.596;10.166;2023-03-19T10:04:38;16.30;99.90
16172;DHT22;8192;53.596;10.166;2023-03-19T10:07:19;16.60;99.90
16172;DHT22;8192;53.596;10.166;2023-03-19T10:09:57;16.50;99.90
16172;DHT22;8192;53.596;10.166;2023-03-19T10:12:42;16.60;99.90
16172;DHT22;8192;53.596;10.166;2023-03-19T10:15:16;16.50;99.90
16172;DHT22;8192;53.596;10.166;2023-03-19T10:17:54;16.70;99.90
16172;DHT22;8192;53.596;10.166;2023-03-19T10:20:33;16.80;99.90
16172;DHT22;8192;53.596;10.166;2023-03-19T10:23:13;17.20;99.90
16172;DHT22;8192;53.596;10.166;2023-03-19T10:25:44;17.20;99.90
16172;DHT22;8192;53.596;10.166;2023-03-19T10:28:15;17.40;99.90
16172;DHT22;8192;53.596;10.166;2023-03-19T10:30:47;17.50;99.90
16172;DHT22;8192;53.596;10.166;2023-03-19T10:33:23;17.50;99.90
16172;DHT22;8192;53.596;10.166;2023-03-19T10:35:57;17.30;99.90
16172;DHT22;8192;53.596;10.166;2023-03-19T10:38:25;17.00;99.90
16172;DHT22;8192;53.596;10.166;2023-03-19T10:41:04;17.10;99.90
16172;DHT22;8192;53.596;10.166;2023-03-19T10:43:38;17.10;99.90
16172;DHT22;8192;53.596;10.166;2023-03-19T10:46:11;17.10;99.90
16172;DHT22;8192;53.596;10.166;2023-03-19T10:48:42;17.30;99.90
16172;DHT22;8192;53.596;10.166;2023-03-19T10:51:13;17.40;99.90
16172;DHT22;8192;53.596;10.166;2023-03-19T10:53:42;17.50;99.90
16172;DHT22;8192;53.596;10.166;2023-03-19T10:56:17;17.70;99.90
16172;DHT22;8192;53.596;10.166;2023-03-19T10:58:56;17.90;99.90
16172;DHT22;8192;53.596;10.166;2023-03-19T11:01:26;18.10;99.90
16172;DHT22;8192;53.596;10.166;2023-03-19T11:03:56;17.90;99.90
16172;DHT22;8192;53.596;10.166;2023-03-19T11:06:26;18.10;99.90
16172;DHT22;8192;53.596;10.166;2023-03-19T11:08:57;18.30;99.90
16172;DHT22;8192;53.596;10.166;2023-03-19T11:11:32;18.50;99.90
16172;DHT22;8192;53.596;10.166;2023-03-19T11:14:09;18.50;99.90
16172;DHT22;8192;53.596;10.166;2023-03-19T11:16:53;18.30;99.90
16172;DHT22;8192;53.596;10.166;2023-03-19T11:19:25;18.30;99.90
16172;DHT22;8192;53.596;10.166;2023-03-19T11:25:17;18.00;99.90
16172;DHT22;8192;53.596;10.166;2023-03-19T11:27:57;18.20;99.90
16172;DHT22;8192;53.596;10.166;2023-03-19T11:30:27;18.40;99.90
16172;DHT22;8192;53.596;10.166;2023-03-19T11:33:14;18.50;99.90
16172;DHT22;8192;53.596;10.166;2023-03-19T11:35:49;18.60;99.90
16172;DHT22;8192;53.596;10.166;2023-03-19T11:38:20;18.50;99.90
16172;DHT22;8192;53.596;10.166;2023-03-19T11:40:56;18.20;99.90
16172;DHT22;8192;53.596;10.166;2023-03-19T11:43:43;17.90;99.90
16172;DHT22;8192;53.596;10.166;2023-03-19T11:46:29;17.80;99.90
16172;DHT22;8192;53.596;10.166;2023-03-19T11:49:29;17.70;99.90
16172;DHT22;8192;53.596;10.166;2023-03-19T11:52:28;17.80;99.90
16172;DHT22;8192;53.596;10.166;2023-03-19T11:55:16;17.90;99.90
16172;DHT22;8192;53.596;10.166;2023-03-19T11:58:05;18.00;99.90
16172;DHT22;8192;53.596;10.166;2023-03-19T12:00:37;18.20;99.90
16172;DHT22;8192;53.596;10.166;2023-03-19T12:06:30;18.40;99.90
16172;DHT22;8192;53.596;10.166;2023-03-19T12:09:03;18.60;99.90
16172;DHT22;8192;53.596;10.166;2023-03-19T12:11:38;18.20;99.90
16172;DHT22;8192;53.596;10.166;2023-03-19T12:14:18;18.00;99.90
16172;DHT22;8192;53.596;10.166;2023-03-19T12:16:58;18.00;99.90
16172;DHT22;8192;53.596;10.166;2023-03-19T12:19:41;17.80;99.90
16172;DHT22;8192;53.596;10.166;2023-03-19T12:22:20;17.30;99.90
16172;DHT22;8192;53.596;10.166;2023-03-19T12:25:07;17.00;99.90
16172;DHT22;8192;53.596;10.166;2023-03-19T12:27:39;16.80;99.90
16172;DHT22;8192;53.596;10.166;2023-03-19T12:30:22;16.60;99.90
16172;DHT22;8192;53.596;10.166;2023-03-19T12:33:02;16.40;99.90
16172;DHT22;8192;53.596;10.166;2023-03-19T12:35:34;16.20;99.90
16172;DHT22;8192;53.596;10.166;2023-03-19T12:38:04;16.10;99.90
16172;DHT22;8192;53.596;10.166;2023-03-19T12:40:35;16.00;99.90
16172;DHT22;8192;53.596;10.166;2023-03-19T12:43:07;16.00;99.90
16172;DHT22;8192;53.596;10.166;2023-03-19T12:45:41;15.80;99.90
16172;DHT22;8192;53.596;10.166;2023-03-19T12:48:12;15.70;99.90
16172;DHT22;8192;53.596;10.166;2023-03-19T12:50:43;15.60;99.90
16172;DHT22;8192;53.596;10.166;2023-03-19T12:53:21;15.50;99.90
16172;DHT22;8192;53.596;10.166;2023-03-19T12:55:54;15.60;99.90
16172;DHT22;8192;53.596;10.166;2023-03-19T12:58:27;15.70;99.90
16172;DHT22;8192;53.596;10.166;2023-03-19T13:01:02;15.90;99.90
16172;DHT22;8192;53.596;10.166;2023-03-19T13:03:38;16.00;99.90
16172;DHT22;8192;53.596;10.166;2023-03-19T13:06:09;16.20;99.90
16172;DHT22;8192;53.596;10.166;2023-03-19T13:08:43;16.50;99.90
16172;DHT22;8192;53.596;10.166;2023-03-19T13:11:23;16.60;99.90
16172;DHT22;8192;53.596;10.166;2023-03-19T13:13:57;16.60;99.90
16172;DHT22;8192;53.596;10.166;2023-03-19T13:16:35;16.80;99.90
16172;DHT22;8192;53.596;10.166;2023-03-19T13:19:12;16.80;99.90
16172;DHT22;8192;53.596;10.166;2023-03-19T13:21:43;16.70;99.90
16172;DHT22;8192;53.596;10.166;2023-03-19T13:24:18;16.60;99.90
16172;DHT22;8192;53.596;10.166;2023-03-19T13:26:47;16.60;99.90
16172;DHT22;8192;53.596;10.166;2023-03-19T13:29:18;16.50;99.90
16172;DHT22;8192;53.596;10.166;2023-03-19T13:31:49;16.30;99.90
16172;DHT22;8192;53.596;10.166;2023-03-19T13:34:28;16.10;99.90
16172;DHT22;8192;53.596;10.166;2023-03-19T13:37:00;16.10;99.90
16172;DHT22;8192;53.596;10.166;2023-03-19T13:39:32;15.90;99.90
16172;DHT22;8192;53.596;10.166;2023-03-19T13:42:33;15.70;99.90
16172;DHT22;8192;53.596;10.166;2023-03-19T13:45:02;15.40;99.90
16172;DHT22;8192;53.596;10.166;2023-03-19T13:47:38;15.00;99.90
16172;DHT22;8192;53.596;10.166;2023-03-19T13:50:48;14.30;99.90
16172;DHT22;8192;53.596;10.166;2023-03-19T13:53:31;13.90;99.90
16172;DHT22;8192;53.596;10.166;2023-03-19T13:56:00;13.50;99.90
16172;DHT22;8192;53.596;10.166;2023-03-19T13:58:46;13.40;99.90
16172;DHT22;8192;53.596;10.166;2023-03-19T14:01:38;13.40;99.90
16172;DHT22;8192;53.596;10.166;2023-03-19T14:04:16;13.40;99.90
16172;DHT22;8192;53.596;10.166;2023-03-19T14:06:46;13.40;99.90
16172;DHT22;8192;53.596;10.166;2023-03-19T14:09:35;13.30;99.90
16172;DHT22;8192;53.596;10.166;2023-03-19T14:12:28;13.40;99.90
16172;DHT22;8192;53.596;10.166;2023-03-19T14:15:16;13.30;99.90
16172;DHT22;8192;53.596;10.166;2023-03-19T14:17:54;13.30;99.90
16172;DHT22;8192;53.596;10.166;2023-03-19T14:20:26;13.10;99.90
16172;DHT22;8192;53.596;10.166;2023-03-19T14:23:01;13.00;99.90
16172;DHT22;8192;53.596;10.166;2023-03-19T14:25:51;12.90;99.90
16172;DHT22;8192;53.596;10.166;2023-03-19T14:28:23;12.90;99.90
16172;DHT22;8192;53.596;10.166;2023-03-19T14:30:56;12.90;99.90
16172;DHT22;8192;53.596;10.166;2023-03-19T14:33:27;13.20;99.90
16172;DHT22;8192;53.596;10.166;2023-03-19T14:35:57;13.40;99.90
16172;DHT22;8192;53.596;10.166;2023-03-19T14:38:34;13.30;99.90
16172;DHT22;8192;53.596;10.166;2023-03-19T14:41:04;13.20;99.90
16172;DHT22;8192;53.596;10.166;2023-03-19T14:43:57;13.10;99.90
16172;DHT22;8192;53.596;10.166;2023-03-19T14:46:41;13.00;99.90
16172;DHT22;8192;53.596;10.166;2023-03-19T14:49:37;13.00;99.90
16172;DHT22;8192;53.596;10.166;2023-03-19T14:52:13;13.10;99.90
16172;DHT22;8192;53.596;10.166;2023-03-19T14:54:47;13.10;99.90
16172;DHT22;8192;53.596;10.166;2023-03-19T14:57:18;13.10;99.90
16172;DHT22;8192;53.596;10.166;2023-03-19T14:59:48;13.10;99.90
16172;DHT22;8192;53.596;10.166;2023-03-19T15:02:38;13.10;99.90
16172;DHT22;8192;53.596;10.166;2023-03-19T15:05:23;13.20;99.90
16172;DHT22;8192;53.596;10.166;2023-03-19T15:07:56;13.30;99.90
16172;DHT22;8192;53.596;10.166;2023-03-19T15:10:49;13.40;99.90
16172;DHT22;8192;53.596;10.166;2023-03-19T15:13:40;13.50;99.90
16172;DHT22;8192;53.596;10.166;2023-03-19T15:16:18;13.60;99.90
16172;DHT22;8192;53.596;10.166;2023-03-19T15:18:51;13.70;99.90
16172;DHT22;8192;53.596;10.166;2023-03-19T15:21:19;13.80;99.90
16172;DHT22;8192;53.596;10.166;2023-03-19T15:23:49;13.80;99.90
16172;DHT22;8192;53.596;10.166;2023-03-19T15:26:28;13.60;99.90
16172;DHT22;8192;53.596;10.166;2023-03-19T15:28:55;13.50;99.90
16172;DHT22;8192;53.596;10.166;2023-03-19T15:31:39;13.40;99.90
16172;DHT22;8192;53.596;10.166;2023-03-19T15:34:22;13.50;99.90
16172;DHT22;8192;53.596;10.166;2023-03-19T15:36:52;13.40;99.90
16172;DHT22;8192;53.596;10.166;2023-03-19T15:39:24;13.50;99.90
16172;DHT22;8192;53.596;10.166;2023-03-19T15:41:54;13.60;99.90
16172;DHT22;8192;53.596;10.166;2023-03-19T15:44:24;13.80;99.90
16172;DHT22;8192;53.596;10.166;2023-03-19T15:46:55;13.80;99.90
16172;DHT22;8192;53.596;10.166;2023-03-19T15:49:25;13.80;99.90
16172;DHT22;8192;53.596;10.166;2023-03-19T15:51:56;13.70;99.90
16172;DHT22;8192;53.596;10.166;2023-03-19T15:54:26;13.60;99.90
16172;DHT22;8192;53.596;10.166;2023-03-19T15:56:53;13.40;99.90
16172;DHT22;8192;53.596;10.166;2023-03-19T15:59:22;13.30;99.90
16172;DHT22;8192;53.596;10.166;2023-03-19T16:01:57;13.30;99.90
16172;DHT22;8192;53.596;10.166;2023-03-19T16:04:26;13.20;99.90
16172;DHT22;8192;53.596;10.166;2023-03-19T16:06:55;13.20;99.90
16172;DHT22;8192;53.596;10.166;2023-03-19T16:09:26;13.30;99.90
16172;DHT22;8192;53.596;10.166;2023-03-19T16:11:57;13.40;99.90
16172;DHT22;8192;53.596;10.166;2023-03-19T16:14:29;13.40;99.90